createdAt,value
2022-10-04T00:02:02.961Z,101346.14
2022-10-04T00:07:17.367Z,101344.33
2022-10-04T00:12:31.564Z,101345.64
2022-10-04T00:17:37.198Z,101351.39
2022-10-04T00:22:45.718Z,101344.84
2022-10-04T00:28:17.612Z,101349.66
2022-10-04T00:33:41.925Z,101346.27
2022-10-04T00:38:50.403Z,101343.98
2022-10-04T00:43:58.532Z,101353.20
2022-10-04T00:49:06.972Z,101356.84
2022-10-04T00:54:21.252Z,101348.40
2022-10-04T00:59:44.926Z,101347.84
2022-10-04T01:04:56.347Z,101344.93
2022-10-04T01:10:05.646Z,101353.84
2022-10-04T01:15:29.278Z,101342.72
2022-10-04T01:20:37.726Z,101336.89
2022-10-04T01:25:48.543Z,101342.25
2022-10-04T01:30:54.636Z,101343.20
2022-10-04T01:36:00.185Z,101350.05
2022-10-04T01:41:08.722Z,101349.66
2022-10-04T01:46:17.350Z,101356.25
2022-10-04T01:51:28.669Z,101353.37
2022-10-04T01:56:37.172Z,101355.73
2022-10-04T02:01:51.419Z,101355.42
2022-10-04T02:06:59.475Z,101353.14
2022-10-04T02:12:06.260Z,101353.22
2022-10-04T02:17:14.182Z,101350.62
2022-10-04T02:22:20.124Z,101355.82
2022-10-04T02:27:31.486Z,101350.14
2022-10-04T02:32:57.240Z,101349.91
2022-10-04T02:38:11.650Z,101354.48
2022-10-04T02:43:20.095Z,101361.78
2022-10-04T02:48:36.887Z,101360.44
2022-10-04T02:54:03.612Z,101363.59
2022-10-04T02:59:10.672Z,101359.45
2022-10-04T03:04:16.354Z,101359.77
2022-10-04T03:09:29.462Z,101353.69
2022-10-04T03:14:32.569Z,101357.80
2022-10-04T03:19:38.970Z,101365.20
2022-10-04T03:24:50.123Z,101356.75
2022-10-04T03:29:59.281Z,101361.28
2022-10-04T03:35:07.699Z,101363.64
2022-10-04T03:40:15.611Z,101364.12
2022-10-04T03:45:23.617Z,101361.20
2022-10-04T03:50:33.764Z,101360.62
2022-10-04T03:55:43.741Z,101364.06
2022-10-04T04:01:14.955Z,101362.16
2022-10-04T04:06:22.093Z,101366.83
2022-10-04T04:11:29.327Z,101365.06
2022-10-04T04:16:35.508Z,101369.31
2022-10-04T04:21:43.143Z,101362.69
2022-10-04T04:26:53.108Z,101374.99
2022-10-04T04:32:04.227Z,101380.05
2022-10-04T04:37:11.814Z,101377.92
2022-10-04T04:42:27.684Z,101374.72
2022-10-04T04:47:42.113Z,101388.52
2022-10-04T04:52:56.459Z,101381.80
2022-10-04T04:58:02.451Z,101388.25
2022-10-04T05:03:11.881Z,101392.08
2022-10-04T05:08:28.059Z,101384.95
2022-10-04T05:13:42.387Z,101393.00
2022-10-04T05:18:48.702Z,101387.05
2022-10-04T05:23:56.281Z,101394.34
2022-10-04T05:29:04.775Z,101399.19
2022-10-04T05:34:28.444Z,101401.45
2022-10-04T05:39:54.844Z,101409.13
2022-10-04T05:45:01.555Z,101412.29
2022-10-04T05:50:07.331Z,101417.48
2022-10-04T05:55:31.318Z,101424.38
2022-10-04T06:00:42.684Z,101424.34
2022-10-04T06:05:57.699Z,101434.00
2022-10-04T06:11:25.834Z,101432.23
2022-10-04T06:16:55.594Z,101439.33
2022-10-04T06:22:09.611Z,101435.41
2022-10-04T06:27:23.845Z,101429.17
2022-10-04T06:32:41.119Z,101438.62
2022-10-04T06:38:10.797Z,101435.41
2022-10-04T06:43:25.121Z,101439.66
2022-10-04T06:48:56.654Z,101445.16
2022-10-04T06:54:10.804Z,101448.47
2022-10-04T06:59:27.914Z,101460.13
2022-10-04T07:10:11.909Z,101473.14
2022-10-04T07:15:29.417Z,101474.80
2022-10-04T07:20:37.709Z,101478.86
2022-10-04T07:25:52.523Z,101486.62
2022-10-04T07:31:02.684Z,101485.71
2022-10-04T07:36:28.828Z,101486.75
2022-10-04T07:41:37.360Z,101492.91
2022-10-04T07:46:57.422Z,101501.73
2022-10-04T07:52:18.562Z,101516.73
2022-10-04T07:57:31.186Z,101519.13
2022-10-04T08:02:48.569Z,101520.09
2022-10-04T08:08:21.331Z,101517.74
2022-10-04T08:13:38.931Z,101514.20
2022-10-04T08:19:20.655Z,101523.56
2022-10-04T08:24:43.952Z,101529.39
2022-10-04T08:29:55.548Z,101530.64
2022-10-04T08:35:14.864Z,101537.38
2022-10-04T08:40:38.609Z,101542.41
2022-10-04T08:46:09.755Z,101544.91
2022-10-04T08:51:42.136Z,101552.88
2022-10-04T08:57:16.686Z,101547.98
2022-10-04T09:02:37.586Z,101547.12
2022-10-04T09:08:00.929Z,101547.80
2022-10-04T09:13:31.430Z,101543.94
2022-10-04T09:19:00.141Z,101548.94
2022-10-04T09:24:14.423Z,101559.02
2022-10-04T09:29:54.479Z,101553.18
2022-10-04T09:35:06.585Z,101558.73
2022-10-04T09:40:34.844Z,101553.62
2022-10-04T09:45:49.157Z,101556.41
2022-10-04T09:51:13.217Z,101564.09
2022-10-04T09:56:47.353Z,101558.13
2022-10-04T10:02:31.989Z,101552.27
2022-10-04T10:07:56.856Z,101557.33
2022-10-04T10:13:12.563Z,101550.73
2022-10-04T10:18:23.620Z,101556.08
2022-10-04T10:23:56.122Z,101557.56
2022-10-04T10:29:38.016Z,101558.16
2022-10-04T10:34:56.203Z,101562.56
2022-10-04T10:40:38.008Z,101560.80
2022-10-04T10:46:07.023Z,101549.42
2022-10-04T10:51:27.984Z,101564.31
2022-10-04T10:57:06.636Z,101566.28
2022-10-04T11:02:49.527Z,101571.45
2022-10-04T11:08:23.426Z,101562.80
2022-10-04T11:13:42.697Z,101558.48
2022-10-04T11:19:18.603Z,101549.26
2022-10-04T11:25:00.174Z,101558.03
2022-10-04T11:30:26.731Z,101567.88
2022-10-04T11:35:55.632Z,101557.62
2022-10-04T11:41:07.437Z,101555.63
2022-10-04T11:46:24.711Z,101555.63
2022-10-04T11:51:48.858Z,101563.48
2022-10-04T11:57:27.815Z,101569.78
2022-10-04T12:03:11.131Z,101560.09
2022-10-04T12:08:29.081Z,101553.05
2022-10-04T12:13:55.437Z,101557.98
2022-10-04T12:19:22.094Z,101554.68
2022-10-04T12:24:47.838Z,101543.86
2022-10-04T12:30:28.225Z,101547.95
2022-10-04T12:35:42.497Z,101553.70
2022-10-04T12:40:54.104Z,101554.31
2022-10-04T12:46:19.251Z,101546.91
2022-10-04T12:51:39.811Z,101541.72
2022-10-04T12:56:53.997Z,101543.08
2022-10-04T13:02:14.252Z,101540.95
2022-10-04T13:07:43.862Z,101539.07
2022-10-04T13:13:08.983Z,101536.92
2022-10-04T13:18:17.947Z,101542.23
2022-10-04T13:23:40.869Z,101540.59
2022-10-04T13:28:52.395Z,101541.20
2022-10-04T13:34:25.526Z,101538.26
2022-10-04T13:39:58.418Z,101539.77
2022-10-04T13:45:26.305Z,101538.19
2022-10-04T13:50:34.731Z,101531.00
2022-10-04T13:56:03.840Z,101519.68
2022-10-04T14:01:32.559Z,101522.83
2022-10-04T14:06:52.439Z,101523.74
2022-10-04T14:12:34.407Z,101526.39
2022-10-04T14:17:48.621Z,101518.04
2022-10-04T14:23:23.462Z,101518.59
2022-10-04T14:28:52.875Z,101516.61
2022-10-04T14:34:16.130Z,101514.69
2022-10-04T14:39:42.852Z,101502.26
2022-10-04T14:44:55.969Z,101496.34
2022-10-04T14:50:07.140Z,101497.45
2022-10-04T14:55:32.674Z,101500.26
2022-10-04T15:00:57.909Z,101484.86
2022-10-04T15:06:12.642Z,101481.45
2022-10-04T15:11:39.966Z,101483.42
2022-10-04T15:17:00.347Z,101470.09
2022-10-04T15:22:15.911Z,101481.16
2022-10-04T15:27:47.324Z,101482.62
2022-10-04T15:33:12.344Z,101482.39
2022-10-04T15:38:37.348Z,101487.36
2022-10-04T15:43:51.757Z,101481.08
2022-10-04T15:49:23.467Z,101482.11
2022-10-04T15:54:50.043Z,101476.46
2022-10-04T16:00:22.531Z,101477.68
2022-10-04T16:05:40.118Z,101466.94
2022-10-04T16:11:14.350Z,101480.29
2022-10-04T16:16:26.002Z,101481.70
2022-10-04T16:21:52.582Z,101482.72
2022-10-04T16:27:05.005Z,101469.38
2022-10-04T16:32:22.549Z,101465.49
2022-10-04T16:37:49.248Z,101461.09
2022-10-04T16:43:02.269Z,101464.55
2022-10-04T16:48:39.687Z,101478.42
2022-10-04T16:53:53.837Z,101467.23
2022-10-04T16:59:05.139Z,101461.80
2022-10-04T17:04:35.915Z,101469.81
2022-10-04T17:10:08.700Z,101468.20
2022-10-04T17:15:36.505Z,101475.85
2022-10-04T17:20:55.508Z,101482.87
2022-10-04T17:26:19.049Z,101493.75
2022-10-04T17:31:42.739Z,101495.89
2022-10-04T17:36:51.776Z,101480.10
2022-10-04T17:42:01.285Z,101482.27
2022-10-04T17:47:18.103Z,101495.30
2022-10-04T17:52:51.864Z,101503.73
2022-10-04T17:58:15.599Z,101498.73
2022-10-04T18:03:45.324Z,101492.00
2022-10-04T18:09:05.754Z,101477.98
2022-10-04T18:14:39.854Z,101475.55
2022-10-04T18:19:51.607Z,101474.63
2022-10-04T18:25:19.842Z,101480.21
2022-10-04T18:30:27.592Z,101457.98
2022-10-04T18:35:37.442Z,101452.41
2022-10-04T18:40:48.909Z,101449.33
2022-10-04T18:52:11.157Z,101471.75
2022-10-04T18:57:38.323Z,101468.97
2022-10-04T19:03:11.698Z,101470.70
2022-10-04T19:08:34.237Z,101466.17
2022-10-04T19:13:46.959Z,101470.80
2022-10-04T19:18:59.934Z,101480.32
2022-10-04T19:24:17.346Z,101462.81
2022-10-04T19:29:28.613Z,101463.30
2022-10-04T19:34:56.422Z,101470.89
2022-10-04T19:40:11.060Z,101469.09
2022-10-04T19:45:53.165Z,101461.98
2022-10-04T19:51:04.808Z,101455.82
2022-10-04T19:56:22.589Z,101456.98
2022-10-04T20:01:29.962Z,101453.32
2022-10-04T20:06:37.294Z,101451.30
2022-10-04T20:11:49.625Z,101455.50
2022-10-04T20:16:58.206Z,101443.98
2022-10-04T20:22:17.036Z,101448.66
2022-10-04T20:27:28.792Z,101446.84
2022-10-04T20:32:40.578Z,101453.00
2022-10-04T20:38:27.306Z,101459.44
2022-10-04T20:43:18.463Z,101455.50
2022-10-04T20:48:29.710Z,101444.14
2022-10-04T20:53:35.397Z,101431.38
2022-10-04T20:58:41.493Z,101418.88
2022-10-04T21:03:47.847Z,101413.73
2022-10-04T21:08:53.366Z,101414.70
2022-10-04T21:14:01.212Z,101423.66
2022-10-04T21:19:31.331Z,101417.82
2022-10-04T21:24:44.845Z,101398.67
2022-10-04T21:29:50.301Z,101377.50
2022-10-04T21:34:55.844Z,101382.13
2022-10-04T21:40:01.413Z,101371.25
2022-10-04T21:45:07.516Z,101358.64
2022-10-04T21:50:13.567Z,101358.22
2022-10-04T21:55:19.195Z,101357.23
2022-10-04T22:00:25.631Z,101370.52
2022-10-04T22:05:31.423Z,101370.23
2022-10-04T22:10:36.940Z,101359.56
2022-10-04T22:15:42.622Z,101359.84
2022-10-04T22:20:48.075Z,101366.58
2022-10-04T22:25:54.617Z,101354.17
2022-10-04T22:30:59.995Z,101352.64
2022-10-04T22:36:34.227Z,101357.78
2022-10-04T22:41:48.192Z,101336.81
2022-10-04T22:46:56.381Z,101353.66
2022-10-04T22:52:05.108Z,101336.24
2022-10-04T22:57:14.388Z,101339.52
2022-10-04T23:02:29.197Z,101339.62
2022-10-04T23:07:38.167Z,101330.00
2022-10-04T23:12:43.426Z,101319.42
2022-10-04T23:17:56.025Z,101308.30
2022-10-04T23:23:01.672Z,101305.33
2022-10-04T23:28:11.343Z,101299.58
2022-10-04T23:33:22.817Z,101286.20
2022-10-04T23:38:30.621Z,101289.20
2022-10-04T23:43:36.573Z,101291.16
2022-10-04T23:48:42.958Z,101300.97
2022-10-04T23:53:51.696Z,101292.50
2022-10-04T23:58:59.720Z,101280.00
